sensor_id;sensor_type;location;lat;lon;timestamp;P1;durP1;ratioP1;P2;durP2;ratioP2
3733;SDS011;1882;52.256;8.874;2022-12-07T00:01:24;27.23;;;15.33;;
3733;SDS011;1882;52.256;8.874;2022-12-07T00:03:54;27.00;;;15.00;;
3733;SDS011;1882;52.256;8.874;2022-12-07T00:06:26;25.50;;;14.97;;
3733;SDS011;1882;52.256;8.874;2022-12-07T00:08:53;26.90;;;14.77;;
3733;SDS011;1882;52.256;8.874;2022-12-07T00:11:21;27.23;;;14.97;;
3733;SDS011;1882;52.256;8.874;2022-12-07T00:13:52;31.30;;;15.20;;
3733;SDS011;1882;52.256;8.874;2022-12-07T00:16:20;28.63;;;15.43;;
3733;SDS011;1882;52.256;8.874;2022-12-07T00:18:51;31.07;;;15.60;;
3733;SDS011;1882;52.256;8.874;2022-12-07T00:21:19;28.60;;;15.57;;
3733;SDS011;1882;52.256;8.874;2022-12-07T00:23:48;29.60;;;16.13;;
3733;SDS011;1882;52.256;8.874;2022-12-07T00:28:46;29.83;;;16.53;;
3733;SDS011;1882;52.256;8.874;2022-12-07T00:31:14;28.80;;;15.90;;
3733;SDS011;1882;52.256;8.874;2022-12-07T00:33:42;31.37;;;16.23;;
3733;SDS011;1882;52.256;8.874;2022-12-07T00:36:09;29.93;;;15.63;;
3733;SDS011;1882;52.256;8.874;2022-12-07T00:38:38;28.70;;;15.10;;
3733;SDS011;1882;52.256;8.874;2022-12-07T00:41:06;30.80;;;16.10;;
3733;SDS011;1882;52.256;8.874;2022-12-07T00:43:35;30.83;;;16.60;;
3733;SDS011;1882;52.256;8.874;2022-12-07T00:46:02;28.80;;;15.87;;
3733;SDS011;1882;52.256;8.874;2022-12-07T00:48:28;29.03;;;15.20;;
3733;SDS011;1882;52.256;8.874;2022-12-07T00:50:56;28.17;;;15.47;;
3733;SDS011;1882;52.256;8.874;2022-12-07T00:53:22;30.43;;;16.27;;
3733;SDS011;1882;52.256;8.874;2022-12-07T00:55:49;32.73;;;16.43;;
3733;SDS011;1882;52.256;8.874;2022-12-07T00:58:16;29.90;;;15.90;;
3733;SDS011;1882;52.256;8.874;2022-12-07T01:00:43;37.37;;;14.70;;
3733;SDS011;1882;52.256;8.874;2022-12-07T01:03:11;31.73;;;17.70;;
3733;SDS011;1882;52.256;8.874;2022-12-07T01:05:39;34.07;;;17.50;;
3733;SDS011;1882;52.256;8.874;2022-12-07T01:08:06;36.00;;;17.63;;
3733;SDS011;1882;52.256;8.874;2022-12-07T01:10:33;38.60;;;17.93;;
3733;SDS011;1882;52.256;8.874;2022-12-07T01:12:59;30.60;;;15.30;;
3733;SDS011;1882;52.256;8.874;2022-12-07T01:15:26;30.83;;;16.03;;
3733;SDS011;1882;52.256;8.874;2022-12-07T01:17:53;26.37;;;14.00;;
3733;SDS011;1882;52.256;8.874;2022-12-07T01:20:21;26.00;;;14.37;;
3733;SDS011;1882;52.256;8.874;2022-12-07T01:22:47;34.20;;;15.77;;
3733;SDS011;1882;52.256;8.874;2022-12-07T01:25:14;32.90;;;14.43;;
3733;SDS011;1882;52.256;8.874;2022-12-07T01:27:41;26.07;;;13.53;;
3733;SDS011;1882;52.256;8.874;2022-12-07T01:30:09;25.87;;;14.73;;
3733;SDS011;1882;52.256;8.874;2022-12-07T01:32:38;26.40;;;13.50;;
3733;SDS011;1882;52.256;8.874;2022-12-07T01:35:05;26.80;;;12.97;;
3733;SDS011;1882;52.256;8.874;2022-12-07T01:37:37;25.77;;;12.20;;
3733;SDS011;1882;52.256;8.874;2022-12-07T01:40:05;23.70;;;11.60;;
3733;SDS011;1882;52.256;8.874;2022-12-07T01:42:33;26.10;;;10.60;;
3733;SDS011;1882;52.256;8.874;2022-12-07T01:48:08;21.90;;;9.90;;
3733;SDS011;1882;52.256;8.874;2022-12-07T01:50:36;24.57;;;9.30;;
3733;SDS011;1882;52.256;8.874;2022-12-07T01:53:04;27.40;;;9.90;;
3733;SDS011;1882;52.256;8.874;2022-12-07T01:55:32;20.07;;;8.40;;
3733;SDS011;1882;52.256;8.874;2022-12-07T01:57:59;17.20;;;8.13;;
3733;SDS011;1882;52.256;8.874;2022-12-07T02:00:26;22.07;;;8.97;;
3733;SDS011;1882;52.256;8.874;2022-12-07T02:02:57;26.30;;;9.43;;
3733;SDS011;1882;52.256;8.874;2022-12-07T02:05:28;17.43;;;8.53;;
3733;SDS011;1882;52.256;8.874;2022-12-07T02:07:55;22.80;;;9.27;;
3733;SDS011;1882;52.256;8.874;2022-12-07T02:10:26;22.07;;;9.90;;
3733;SDS011;1882;52.256;8.874;2022-12-07T02:12:55;20.70;;;9.13;;
3733;SDS011;1882;52.256;8.874;2022-12-07T02:15:26;14.77;;;7.93;;
3733;SDS011;1882;52.256;8.874;2022-12-07T02:18:13;19.97;;;8.27;;
3733;SDS011;1882;52.256;8.874;2022-12-07T02:26:29;16.50;;;7.10;;
3733;SDS011;1882;52.256;8.874;2022-12-07T02:31:43;17.27;;;8.23;;
3733;SDS011;1882;52.256;8.874;2022-12-07T02:37:09;18.50;;;9.97;;
3733;SDS011;1882;52.256;8.874;2022-12-07T02:39:44;23.50;;;10.20;;
3733;SDS011;1882;52.256;8.874;2022-12-07T02:42:19;25.83;;;8.83;;
3733;SDS011;1882;52.256;8.874;2022-12-07T02:44:50;21.20;;;9.70;;
3733;SDS011;1882;52.256;8.874;2022-12-07T02:47:17;20.77;;;9.83;;
3733;SDS011;1882;52.256;8.874;2022-12-07T02:49:46;22.77;;;10.63;;
3733;SDS011;1882;52.256;8.874;2022-12-07T02:52:13;21.53;;;9.43;;
3733;SDS011;1882;52.256;8.874;2022-12-07T02:54:39;25.13;;;10.77;;
3733;SDS011;1882;52.256;8.874;2022-12-07T03:00:09;24.00;;;10.00;;
3733;SDS011;1882;52.256;8.874;2022-12-07T03:07:59;20.10;;;7.80;;
3733;SDS011;1882;52.256;8.874;2022-12-07T03:15:45;17.33;;;8.00;;
3733;SDS011;1882;52.256;8.874;2022-12-07T03:18:16;17.20;;;7.87;;
3733;SDS011;1882;52.256;8.874;2022-12-07T03:20:45;15.60;;;5.90;;
3733;SDS011;1882;52.256;8.874;2022-12-07T03:23:13;21.10;;;7.30;;
3733;SDS011;1882;52.256;8.874;2022-12-07T03:25:42;14.57;;;6.30;;
3733;SDS011;1882;52.256;8.874;2022-12-07T03:28:13;16.63;;;5.90;;
3733;SDS011;1882;52.256;8.874;2022-12-07T03:30:46;23.80;;;6.43;;
3733;SDS011;1882;52.256;8.874;2022-12-07T03:33:23;19.93;;;5.43;;
3733;SDS011;1882;52.256;8.874;2022-12-07T03:35:55;14.60;;;5.77;;
3733;SDS011;1882;52.256;8.874;2022-12-07T03:38:32;20.30;;;5.37;;
3733;SDS011;1882;52.256;8.874;2022-12-07T03:41:06;15.03;;;5.70;;
3733;SDS011;1882;52.256;8.874;2022-12-07T03:43:36;11.47;;;4.60;;
3733;SDS011;1882;52.256;8.874;2022-12-07T03:51:36;9.47;;;4.00;;
3733;SDS011;1882;52.256;8.874;2022-12-07T03:54:09;9.53;;;4.27;;
3733;SDS011;1882;52.256;8.874;2022-12-07T03:56:40;9.97;;;4.73;;
3733;SDS011;1882;52.256;8.874;2022-12-07T03:59:08;16.10;;;6.13;;
3733;SDS011;1882;52.256;8.874;2022-12-07T04:01:36;18.20;;;5.97;;
3733;SDS011;1882;52.256;8.874;2022-12-07T04:04:03;11.60;;;5.87;;
3733;SDS011;1882;52.256;8.874;2022-12-07T04:06:30;9.50;;;5.60;;
3733;SDS011;1882;52.256;8.874;2022-12-07T04:08:56;11.23;;;5.10;;
3733;SDS011;1882;52.256;8.874;2022-12-07T04:11:23;11.57;;;5.60;;
3733;SDS011;1882;52.256;8.874;2022-12-07T04:13:50;13.80;;;4.43;;
3733;SDS011;1882;52.256;8.874;2022-12-07T04:16:35;12.97;;;4.90;;
3733;SDS011;1882;52.256;8.874;2022-12-07T04:19:09;15.23;;;5.87;;
3733;SDS011;1882;52.256;8.874;2022-12-07T04:21:36;13.23;;;4.47;;
3733;SDS011;1882;52.256;8.874;2022-12-07T04:24:03;11.20;;;4.63;;
3733;SDS011;1882;52.256;8.874;2022-12-07T04:26:30;10.10;;;4.73;;
3733;SDS011;1882;52.256;8.874;2022-12-07T04:28:59;14.37;;;4.20;;
3733;SDS011;1882;52.256;8.874;2022-12-07T04:31:32;10.97;;;4.47;;
3733;SDS011;1882;52.256;8.874;2022-12-07T04:33:59;8.70;;;4.60;;
3733;SDS011;1882;52.256;8.874;2022-12-07T04:36:30;10.20;;;4.00;;
3733;SDS011;1882;52.256;8.874;2022-12-07T04:38:57;13.83;;;3.77;;
3733;SDS011;1882;52.256;8.874;2022-12-07T04:41:25;13.90;;;4.40;;
3733;SDS011;1882;52.256;8.874;2022-12-07T04:43:58;7.80;;;3.10;;
3733;SDS011;1882;52.256;8.874;2022-12-07T04:46:27;10.13;;;3.00;;
3733;SDS011;1882;52.256;8.874;2022-12-07T04:48:55;5.70;;;2.57;;
3733;SDS011;1882;52.256;8.874;2022-12-07T04:51:26;7.37;;;2.63;;
3733;SDS011;1882;52.256;8.874;2022-12-07T04:53:55;8.77;;;2.53;;
3733;SDS011;1882;52.256;8.874;2022-12-07T04:56:22;7.17;;;2.50;;
3733;SDS011;1882;52.256;8.874;2022-12-07T04:58:49;8.67;;;2.80;;
3733;SDS011;1882;52.256;8.874;2022-12-07T05:01:18;9.13;;;2.43;;
3733;SDS011;1882;52.256;8.874;2022-12-07T05:03:55;13.17;;;2.70;;
3733;SDS011;1882;52.256;8.874;2022-12-07T05:06:22;20.57;;;3.00;;
3733;SDS011;1882;52.256;8.874;2022-12-07T05:08:48;15.50;;;2.87;;
3733;SDS011;1882;52.256;8.874;2022-12-07T05:11:15;11.17;;;3.50;;
3733;SDS011;1882;52.256;8.874;2022-12-07T05:14:14;8.97;;;3.30;;
3733;SDS011;1882;52.256;8.874;2022-12-07T05:16:41;7.40;;;2.77;;
3733;SDS011;1882;52.256;8.874;2022-12-07T05:19:09;9.33;;;3.83;;
3733;SDS011;1882;52.256;8.874;2022-12-07T05:21:39;6.97;;;3.23;;
3733;SDS011;1882;52.256;8.874;2022-12-07T05:24:06;4.73;;;2.93;;
3733;SDS011;1882;52.256;8.874;2022-12-07T05:26:34;6.43;;;3.23;;
3733;SDS011;1882;52.256;8.874;2022-12-07T05:29:00;13.83;;;3.47;;
3733;SDS011;1882;52.256;8.874;2022-12-07T05:31:30;5.40;;;2.70;;
3733;SDS011;1882;52.256;8.874;2022-12-07T05:33:56;5.60;;;3.10;;
3733;SDS011;1882;52.256;8.874;2022-12-07T05:36:23;4.17;;;3.20;;
3733;SDS011;1882;52.256;8.874;2022-12-07T05:39:01;6.63;;;3.10;;
3733;SDS011;1882;52.256;8.874;2022-12-07T05:41:29;5.33;;;3.03;;
3733;SDS011;1882;52.256;8.874;2022-12-07T05:44:14;12.47;;;3.60;;
3733;SDS011;1882;52.256;8.874;2022-12-07T05:46:41;4.93;;;2.83;;
3733;SDS011;1882;52.256;8.874;2022-12-07T05:49:07;7.57;;;2.50;;
3733;SDS011;1882;52.256;8.874;2022-12-07T05:51:34;5.63;;;2.70;;
3733;SDS011;1882;52.256;8.874;2022-12-07T05:54:01;5.83;;;2.50;;
3733;SDS011;1882;52.256;8.874;2022-12-07T05:56:29;3.70;;;2.30;;
3733;SDS011;1882;52.256;8.874;2022-12-07T05:58:56;5.73;;;1.90;;
3733;SDS011;1882;52.256;8.874;2022-12-07T06:01:44;12.00;;;2.27;;
3733;SDS011;1882;52.256;8.874;2022-12-07T06:04:11;5.43;;;1.70;;
3733;SDS011;1882;52.256;8.874;2022-12-07T06:06:41;5.17;;;2.07;;
3733;SDS011;1882;52.256;8.874;2022-12-07T06:09:08;8.13;;;2.07;;
3733;SDS011;1882;52.256;8.874;2022-12-07T06:11:36;3.43;;;1.70;;
3733;SDS011;1882;52.256;8.874;2022-12-07T06:14:21;5.10;;;2.67;;
3733;SDS011;1882;52.256;8.874;2022-12-07T06:16:47;5.43;;;1.60;;
3733;SDS011;1882;52.256;8.874;2022-12-07T06:19:14;5.97;;;1.77;;
3733;SDS011;1882;52.256;8.874;2022-12-07T06:21:43;8.43;;;1.63;;
3733;SDS011;1882;52.256;8.874;2022-12-07T06:24:11;3.00;;;1.50;;
3733;SDS011;1882;52.256;8.874;2022-12-07T06:26:38;5.30;;;1.40;;
3733;SDS011;1882;52.256;8.874;2022-12-07T06:29:05;5.40;;;1.63;;
3733;SDS011;1882;52.256;8.874;2022-12-07T06:31:40;5.30;;;1.80;;
3733;SDS011;1882;52.256;8.874;2022-12-07T06:34:09;14.83;;;2.07;;
3733;SDS011;1882;52.256;8.874;2022-12-07T06:36:36;3.20;;;1.60;;
3733;SDS011;1882;52.256;8.874;2022-12-07T06:39:03;6.17;;;1.67;;
3733;SDS011;1882;52.256;8.874;2022-12-07T06:41:30;2.60;;;1.47;;
3733;SDS011;1882;52.256;8.874;2022-12-07T06:43:57;3.97;;;1.43;;
3733;SDS011;1882;52.256;8.874;2022-12-07T06:46:24;5.00;;;1.10;;
3733;SDS011;1882;52.256;8.874;2022-12-07T06:48:51;2.37;;;1.63;;
3733;SDS011;1882;52.256;8.874;2022-12-07T06:51:18;5.90;;;1.80;;
3733;SDS011;1882;52.256;8.874;2022-12-07T06:53:45;2.87;;;1.33;;
3733;SDS011;1882;52.256;8.874;2022-12-07T06:56:11;3.67;;;1.73;;
3733;SDS011;1882;52.256;8.874;2022-12-07T06:58:38;3.70;;;1.20;;
3733;SDS011;1882;52.256;8.874;2022-12-07T07:01:15;5.90;;;1.30;;
3733;SDS011;1882;52.256;8.874;2022-12-07T07:03:44;5.27;;;1.40;;
3733;SDS011;1882;52.256;8.874;2022-12-07T07:06:11;2.30;;;1.33;;
3733;SDS011;1882;52.256;8.874;2022-12-07T07:08:39;10.23;;;1.93;;
3733;SDS011;1882;52.256;8.874;2022-12-07T07:11:06;9.97;;;1.80;;
3733;SDS011;1882;52.256;8.874;2022-12-07T07:13:33;4.83;;;1.80;;
3733;SDS011;1882;52.256;8.874;2022-12-07T07:16:03;5.43;;;2.30;;
3733;SDS011;1882;52.256;8.874;2022-12-07T07:18:30;9.93;;;2.40;;
3733;SDS011;1882;52.256;8.874;2022-12-07T07:20:56;5.30;;;2.17;;
3733;SDS011;1882;52.256;8.874;2022-12-07T07:23:23;6.50;;;1.90;;
3733;SDS011;1882;52.256;8.874;2022-12-07T07:25:50;6.53;;;1.83;;
3733;SDS011;1882;52.256;8.874;2022-12-07T07:28:17;5.77;;;1.73;;
3733;SDS011;1882;52.256;8.874;2022-12-07T07:30:46;9.87;;;2.00;;
3733;SDS011;1882;52.256;8.874;2022-12-07T07:33:13;10.80;;;2.43;;
3733;SDS011;1882;52.256;8.874;2022-12-07T07:35:39;3.80;;;1.93;;
3733;SDS011;1882;52.256;8.874;2022-12-07T07:38:06;4.00;;;1.60;;
3733;SDS011;1882;52.256;8.874;2022-12-07T07:40:41;3.93;;;1.93;;
3733;SDS011;1882;52.256;8.874;2022-12-07T07:43:08;9.60;;;2.40;;
3733;SDS011;1882;52.256;8.874;2022-12-07T07:45:34;5.20;;;1.97;;
3733;SDS011;1882;52.256;8.874;2022-12-07T07:48:06;2.07;;;1.80;;
3733;SDS011;1882;52.256;8.874;2022-12-07T07:50:35;5.50;;;2.20;;
3733;SDS011;1882;52.256;8.874;2022-12-07T07:53:02;5.47;;;2.17;;
3733;SDS011;1882;52.256;8.874;2022-12-07T07:55:39;9.43;;;2.20;;
3733;SDS011;1882;52.256;8.874;2022-12-07T07:58:09;3.00;;;2.10;;
3733;SDS011;1882;52.256;8.874;2022-12-07T08:00:35;6.03;;;2.50;;
3733;SDS011;1882;52.256;8.874;2022-12-07T08:03:20;3.23;;;2.10;;
3733;SDS011;1882;52.256;8.874;2022-12-07T08:05:46;9.07;;;2.57;;
3733;SDS011;1882;52.256;8.874;2022-12-07T08:08:13;7.73;;;2.10;;
3733;SDS011;1882;52.256;8.874;2022-12-07T08:10:40;3.90;;;2.00;;
3733;SDS011;1882;52.256;8.874;2022-12-07T08:13:10;4.40;;;1.53;;
3733;SDS011;1882;52.256;8.874;2022-12-07T08:15:38;5.90;;;1.77;;
3733;SDS011;1882;52.256;8.874;2022-12-07T08:18:10;4.07;;;2.07;;
3733;SDS011;1882;52.256;8.874;2022-12-07T08:20:39;5.53;;;2.00;;
3733;SDS011;1882;52.256;8.874;2022-12-07T08:23:07;3.80;;;2.07;;
3733;SDS011;1882;52.256;8.874;2022-12-07T08:25:34;2.87;;;2.57;;
3733;SDS011;1882;52.256;8.874;2022-12-07T08:28:04;5.67;;;3.10;;
3733;SDS011;1882;52.256;8.874;2022-12-07T08:30:31;8.93;;;2.53;;
3733;SDS011;1882;52.256;8.874;2022-12-07T08:33:08;7.23;;;2.30;;
3733;SDS011;1882;52.256;8.874;2022-12-07T08:35:36;6.17;;;2.03;;
3733;SDS011;1882;52.256;8.874;2022-12-07T08:38:10;4.97;;;2.23;;
3733;SDS011;1882;52.256;8.874;2022-12-07T08:40:39;5.80;;;2.70;;
3733;SDS011;1882;52.256;8.874;2022-12-07T08:43:06;7.10;;;2.20;;
3733;SDS011;1882;52.256;8.874;2022-12-07T08:45:33;3.63;;;2.07;;
3733;SDS011;1882;52.256;8.874;2022-12-07T08:48:03;4.77;;;2.43;;
3733;SDS011;1882;52.256;8.874;2022-12-07T08:50:33;6.90;;;2.00;;
3733;SDS011;1882;52.256;8.874;2022-12-07T08:53:00;4.63;;;2.70;;
3733;SDS011;1882;52.256;8.874;2022-12-07T08:55:33;10.07;;;2.33;;
3733;SDS011;1882;52.256;8.874;2022-12-07T08:58:01;4.90;;;2.20;;
3733;SDS011;1882;52.256;8.874;2022-12-07T09:00:28;4.10;;;1.90;;
3733;SDS011;1882;52.256;8.874;2022-12-07T09:02:55;9.33;;;2.70;;
3733;SDS011;1882;52.256;8.874;2022-12-07T09:05:22;4.40;;;2.27;;
3733;SDS011;1882;52.256;8.874;2022-12-07T09:07:50;6.33;;;2.00;;
3733;SDS011;1882;52.256;8.874;2022-12-07T09:10:18;6.40;;;2.00;;
3733;SDS011;1882;52.256;8.874;2022-12-07T09:12:44;9.17;;;2.63;;
3733;SDS011;1882;52.256;8.874;2022-12-07T09:15:11;10.57;;;2.40;;
3733;SDS011;1882;52.256;8.874;2022-12-07T09:17:37;3.97;;;1.60;;
3733;SDS011;1882;52.256;8.874;2022-12-07T09:20:05;8.83;;;2.03;;
3733;SDS011;1882;52.256;8.874;2022-12-07T09:22:32;8.77;;;1.53;;
3733;SDS011;1882;52.256;8.874;2022-12-07T09:24:59;5.60;;;2.23;;
3733;SDS011;1882;52.256;8.874;2022-12-07T09:27:27;7.37;;;1.67;;
3733;SDS011;1882;52.256;8.874;2022-12-07T09:29:53;10.30;;;2.30;;
3733;SDS011;1882;52.256;8.874;2022-12-07T09:32:20;6.37;;;2.80;;
3733;SDS011;1882;52.256;8.874;2022-12-07T09:34:47;9.20;;;3.10;;
3733;SDS011;1882;52.256;8.874;2022-12-07T09:37:14;5.17;;;3.60;;
3733;SDS011;1882;52.256;8.874;2022-12-07T09:39:42;7.00;;;3.90;;
3733;SDS011;1882;52.256;8.874;2022-12-07T09:42:34;11.10;;;4.17;;
3733;SDS011;1882;52.256;8.874;2022-12-07T09:45:05;5.03;;;2.93;;
3733;SDS011;1882;52.256;8.874;2022-12-07T09:47:33;8.60;;;4.20;;
3733;SDS011;1882;52.256;8.874;2022-12-07T09:50:04;7.07;;;4.00;;
3733;SDS011;1882;52.256;8.874;2022-12-07T09:52:32;8.53;;;3.70;;
3733;SDS011;1882;52.256;8.874;2022-12-07T09:55:09;6.03;;;3.53;;
3733;SDS011;1882;52.256;8.874;2022-12-07T10:11:02;3.53;;;2.50;;
3733;SDS011;1882;52.256;8.874;2022-12-07T10:13:38;6.40;;;2.87;;
3733;SDS011;1882;52.256;8.874;2022-12-07T10:18:51;6.27;;;3.50;;
3733;SDS011;1882;52.256;8.874;2022-12-07T10:26:35;6.70;;;3.50;;
3733;SDS011;1882;52.256;8.874;2022-12-07T10:32:02;8.43;;;3.90;;
3733;SDS011;1882;52.256;8.874;2022-12-07T10:34:49;6.77;;;3.60;;
3733;SDS011;1882;52.256;8.874;2022-12-07T10:37:18;12.47;;;3.63;;
3733;SDS011;1882;52.256;8.874;2022-12-07T10:39:53;7.57;;;3.60;;
3733;SDS011;1882;52.256;8.874;2022-12-07T10:44:48;9.70;;;3.93;;
3733;SDS011;1882;52.256;8.874;2022-12-07T10:50:17;12.90;;;4.80;;
3733;SDS011;1882;52.256;8.874;2022-12-07T11:01:44;12.27;;;4.57;;
3733;SDS011;1882;52.256;8.874;2022-12-07T11:15:28;9.30;;;3.90;;
3733;SDS011;1882;52.256;8.874;2022-12-07T11:21:43;15.40;;;4.07;;
3733;SDS011;1882;52.256;8.874;2022-12-07T11:37:06;8.00;;;2.63;;
3733;SDS011;1882;52.256;8.874;2022-12-07T11:39:43;13.00;;;3.30;;
3733;SDS011;1882;52.256;8.874;2022-12-07T11:42:54;5.40;;;2.73;;
3733;SDS011;1882;52.256;8.874;2022-12-07T11:45:27;6.67;;;2.73;;
3733;SDS011;1882;52.256;8.874;2022-12-07T11:52:24;8.03;;;2.00;;
3733;SDS011;1882;52.256;8.874;2022-12-07T11:54:55;8.60;;;2.00;;
3733;SDS011;1882;52.256;8.874;2022-12-07T11:57:43;8.20;;;2.70;;
3733;SDS011;1882;52.256;8.874;2022-12-07T12:00:15;5.67;;;2.53;;
3733;SDS011;1882;52.256;8.874;2022-12-07T12:05:34;7.00;;;2.17;;
3733;SDS011;1882;52.256;8.874;2022-12-07T12:20:03;8.20;;;2.00;;
3733;SDS011;1882;52.256;8.874;2022-12-07T12:22:47;6.87;;;1.80;;
3733;SDS011;1882;52.256;8.874;2022-12-07T12:25:29;9.30;;;2.17;;
3733;SDS011;1882;52.256;8.874;2022-12-07T12:27:58;3.20;;;1.63;;
3733;SDS011;1882;52.256;8.874;2022-12-07T12:30:36;5.23;;;1.80;;
3733;SDS011;1882;52.256;8.874;2022-12-07T12:33:05;4.23;;;1.80;;
3733;SDS011;1882;52.256;8.874;2022-12-07T12:35:40;2.57;;;1.77;;
3733;SDS011;1882;52.256;8.874;2022-12-07T12:40:57;6.63;;;2.10;;
3733;SDS011;1882;52.256;8.874;2022-12-07T12:57:33;16.57;;;5.10;;
3733;SDS011;1882;52.256;8.874;2022-12-07T13:00:01;16.13;;;8.67;;
3733;SDS011;1882;52.256;8.874;2022-12-07T13:12:59;15.43;;;4.03;;
3733;SDS011;1882;52.256;8.874;2022-12-07T13:15:42;2.43;;;2.10;;
3733;SDS011;1882;52.256;8.874;2022-12-07T13:18:23;3.93;;;2.10;;
3733;SDS011;1882;52.256;8.874;2022-12-07T13:21:00;5.20;;;2.00;;
3733;SDS011;1882;52.256;8.874;2022-12-07T13:26:21;8.80;;;2.70;;
3733;SDS011;1882;52.256;8.874;2022-12-07T13:31:45;8.10;;;2.77;;
3733;SDS011;1882;52.256;8.874;2022-12-07T13:40:37;4.60;;;2.50;;
3733;SDS011;1882;52.256;8.874;2022-12-07T13:42:58;10.30;;;3.87;;
3733;SDS011;1882;52.256;8.874;2022-12-07T13:45:27;7.73;;;3.00;;
3733;SDS011;1882;52.256;8.874;2022-12-07T13:50:55;7.53;;;3.37;;
3733;SDS011;1882;52.256;8.874;2022-12-07T13:53:23;9.97;;;4.20;;
3733;SDS011;1882;52.256;8.874;2022-12-07T13:55:57;11.50;;;3.60;;
3733;SDS011;1882;52.256;8.874;2022-12-07T13:58:25;8.67;;;4.00;;
3733;SDS011;1882;52.256;8.874;2022-12-07T14:00:53;4.73;;;2.70;;
3733;SDS011;1882;52.256;8.874;2022-12-07T14:03:31;7.17;;;3.53;;
3733;SDS011;1882;52.256;8.874;2022-12-07T14:06:07;7.10;;;2.50;;
3733;SDS011;1882;52.256;8.874;2022-12-07T14:08:34;15.00;;;7.23;;
3733;SDS011;1882;52.256;8.874;2022-12-07T14:11:00;8.27;;;2.80;;
3733;SDS011;1882;52.256;8.874;2022-12-07T14:13:29;6.93;;;3.40;;
3733;SDS011;1882;52.256;8.874;2022-12-07T14:16:24;5.00;;;2.10;;
3733;SDS011;1882;52.256;8.874;2022-12-07T14:18:52;7.70;;;2.60;;
3733;SDS011;1882;52.256;8.874;2022-12-07T14:21:20;5.23;;;2.60;;
3733;SDS011;1882;52.256;8.874;2022-12-07T14:26:44;11.23;;;4.30;;
3733;SDS011;1882;52.256;8.874;2022-12-07T14:29:19;9.43;;;2.80;;
3733;SDS011;1882;52.256;8.874;2022-12-07T14:31:46;5.30;;;2.70;;
3733;SDS011;1882;52.256;8.874;2022-12-07T14:34:12;8.00;;;2.60;;
3733;SDS011;1882;52.256;8.874;2022-12-07T14:36:39;5.93;;;3.20;;
3733;SDS011;1882;52.256;8.874;2022-12-07T14:39:06;7.50;;;2.47;;
3733;SDS011;1882;52.256;8.874;2022-12-07T14:41:38;7.50;;;3.03;;
3733;SDS011;1882;52.256;8.874;2022-12-07T14:44:18;6.20;;;2.93;;
3733;SDS011;1882;52.256;8.874;2022-12-07T14:46:49;10.10;;;2.70;;
3733;SDS011;1882;52.256;8.874;2022-12-07T14:49:36;8.90;;;3.10;;
3733;SDS011;1882;52.256;8.874;2022-12-07T14:52:03;7.20;;;3.00;;
3733;SDS011;1882;52.256;8.874;2022-12-07T14:54:51;13.70;;;3.13;;
3733;SDS011;1882;52.256;8.874;2022-12-07T14:57:17;4.77;;;2.40;;
3733;SDS011;1882;52.256;8.874;2022-12-07T14:59:44;5.60;;;3.40;;
3733;SDS011;1882;52.256;8.874;2022-12-07T15:02:12;11.70;;;3.30;;
3733;SDS011;1882;52.256;8.874;2022-12-07T15:04:40;10.57;;;3.20;;
3733;SDS011;1882;52.256;8.874;2022-12-07T15:07:13;6.20;;;3.10;;
3733;SDS011;1882;52.256;8.874;2022-12-07T15:09:43;8.40;;;3.60;;
3733;SDS011;1882;52.256;8.874;2022-12-07T15:12:10;6.23;;;3.37;;
3733;SDS011;1882;52.256;8.874;2022-12-07T15:14:36;10.40;;;3.60;;
3733;SDS011;1882;52.256;8.874;2022-12-07T15:17:03;8.57;;;5.80;;
3733;SDS011;1882;52.256;8.874;2022-12-07T15:19:38;10.50;;;5.00;;
3733;SDS011;1882;52.256;8.874;2022-12-07T15:22:05;16.50;;;3.70;;
3733;SDS011;1882;52.256;8.874;2022-12-07T15:24:31;9.40;;;4.77;;
3733;SDS011;1882;52.256;8.874;2022-12-07T15:26:59;8.67;;;3.30;;
3733;SDS011;1882;52.256;8.874;2022-12-07T15:29:26;8.10;;;2.90;;
3733;SDS011;1882;52.256;8.874;2022-12-07T15:31:53;9.47;;;3.40;;
3733;SDS011;1882;52.256;8.874;2022-12-07T15:34:26;6.97;;;4.03;;
3733;SDS011;1882;52.256;8.874;2022-12-07T15:37:04;8.40;;;2.87;;
3733;SDS011;1882;52.256;8.874;2022-12-07T15:39:31;8.07;;;3.23;;
3733;SDS011;1882;52.256;8.874;2022-12-07T15:41:58;7.80;;;3.83;;
3733;SDS011;1882;52.256;8.874;2022-12-07T15:44:25;7.33;;;2.87;;
3733;SDS011;1882;52.256;8.874;2022-12-07T15:47:10;7.73;;;2.90;;
3733;SDS011;1882;52.256;8.874;2022-12-07T15:49:37;4.27;;;2.87;;
3733;SDS011;1882;52.256;8.874;2022-12-07T15:52:04;6.20;;;2.70;;
3733;SDS011;1882;52.256;8.874;2022-12-07T15:54:31;9.53;;;2.90;;
3733;SDS011;1882;52.256;8.874;2022-12-07T15:56:59;14.90;;;4.00;;
3733;SDS011;1882;52.256;8.874;2022-12-07T15:59:26;11.73;;;5.73;;
3733;SDS011;1882;52.256;8.874;2022-12-07T16:01:54;8.60;;;3.90;;
3733;SDS011;1882;52.256;8.874;2022-12-07T16:04:21;14.57;;;3.50;;
3733;SDS011;1882;52.256;8.874;2022-12-07T16:06:48;7.93;;;2.90;;
3733;SDS011;1882;52.256;8.874;2022-12-07T16:09:16;10.80;;;3.60;;
3733;SDS011;1882;52.256;8.874;2022-12-07T16:11:43;8.90;;;3.10;;
3733;SDS011;1882;52.256;8.874;2022-12-07T16:14:19;5.17;;;3.30;;
3733;SDS011;1882;52.256;8.874;2022-12-07T16:16:45;5.93;;;2.60;;
3733;SDS011;1882;52.256;8.874;2022-12-07T16:19:12;4.50;;;2.30;;
3733;SDS011;1882;52.256;8.874;2022-12-07T16:21:46;5.87;;;2.10;;
3733;SDS011;1882;52.256;8.874;2022-12-07T16:24:13;3.40;;;2.10;;
3733;SDS011;1882;52.256;8.874;2022-12-07T16:26:41;5.23;;;2.13;;
3733;SDS011;1882;52.256;8.874;2022-12-07T16:29:15;5.60;;;3.40;;
3733;SDS011;1882;52.256;8.874;2022-12-07T16:31:43;4.87;;;2.23;;
3733;SDS011;1882;52.256;8.874;2022-12-07T16:34:11;6.57;;;3.60;;
3733;SDS011;1882;52.256;8.874;2022-12-07T16:36:38;4.73;;;2.20;;
3733;SDS011;1882;52.256;8.874;2022-12-07T16:39:32;4.93;;;2.20;;
3733;SDS011;1882;52.256;8.874;2022-12-07T16:42:00;4.00;;;2.23;;
3733;SDS011;1882;52.256;8.874;2022-12-07T16:44:27;4.77;;;3.00;;
3733;SDS011;1882;52.256;8.874;2022-12-07T16:46:54;4.83;;;2.57;;
3733;SDS011;1882;52.256;8.874;2022-12-07T16:49:24;5.47;;;2.20;;
3733;SDS011;1882;52.256;8.874;2022-12-07T16:51:51;6.17;;;2.43;;
3733;SDS011;1882;52.256;8.874;2022-12-07T16:54:38;5.30;;;2.90;;
3733;SDS011;1882;52.256;8.874;2022-12-07T16:57:05;6.20;;;2.40;;
3733;SDS011;1882;52.256;8.874;2022-12-07T16:59:39;3.07;;;2.20;;
3733;SDS011;1882;52.256;8.874;2022-12-07T17:02:08;6.43;;;2.23;;
3733;SDS011;1882;52.256;8.874;2022-12-07T17:04:37;5.30;;;2.70;;
3733;SDS011;1882;52.256;8.874;2022-12-07T17:07:07;3.00;;;2.40;;
3733;SDS011;1882;52.256;8.874;2022-12-07T17:09:34;4.27;;;2.67;;
3733;SDS011;1882;52.256;8.874;2022-12-07T17:12:04;4.40;;;2.87;;
3733;SDS011;1882;52.256;8.874;2022-12-07T17:14:33;8.33;;;3.30;;
3733;SDS011;1882;52.256;8.874;2022-12-07T17:17:27;6.83;;;3.83;;
3733;SDS011;1882;52.256;8.874;2022-12-07T17:19:54;4.70;;;2.90;;
3733;SDS011;1882;52.256;8.874;2022-12-07T17:22:20;4.57;;;2.57;;
3733;SDS011;1882;52.256;8.874;2022-12-07T17:24:47;5.60;;;2.70;;
3733;SDS011;1882;52.256;8.874;2022-12-07T17:27:23;5.10;;;2.80;;
3733;SDS011;1882;52.256;8.874;2022-12-07T17:29:49;10.57;;;3.33;;
3733;SDS011;1882;52.256;8.874;2022-12-07T17:32:16;5.67;;;2.67;;
3733;SDS011;1882;52.256;8.874;2022-12-07T17:34:43;8.70;;;3.00;;
3733;SDS011;1882;52.256;8.874;2022-12-07T17:37:17;4.27;;;3.30;;
3733;SDS011;1882;52.256;8.874;2022-12-07T17:39:47;10.70;;;3.17;;
3733;SDS011;1882;52.256;8.874;2022-12-07T17:42:17;6.20;;;3.20;;
3733;SDS011;1882;52.256;8.874;2022-12-07T17:45:22;5.47;;;3.13;;
3733;SDS011;1882;52.256;8.874;2022-12-07T17:47:52;10.13;;;3.50;;
3733;SDS011;1882;52.256;8.874;2022-12-07T17:50:19;7.23;;;3.67;;
3733;SDS011;1882;52.256;8.874;2022-12-07T17:53:10;9.73;;;3.60;;
3733;SDS011;1882;52.256;8.874;2022-12-07T17:55:37;8.23;;;4.60;;
3733;SDS011;1882;52.256;8.874;2022-12-07T17:58:27;7.20;;;4.10;;
3733;SDS011;1882;52.256;8.874;2022-12-07T18:00:54;5.60;;;3.37;;
3733;SDS011;1882;52.256;8.874;2022-12-07T18:03:20;5.87;;;4.20;;
3733;SDS011;1882;52.256;8.874;2022-12-07T18:05:47;8.60;;;3.90;;
3733;SDS011;1882;52.256;8.874;2022-12-07T18:08:21;8.47;;;3.97;;
3733;SDS011;1882;52.256;8.874;2022-12-07T18:10:48;8.23;;;4.80;;
3733;SDS011;1882;52.256;8.874;2022-12-07T18:13:15;12.70;;;4.50;;